Time;durP1;ratioP1;P1;durP2;ratioP2;P2;SDS_P1;SDS_P2;PMS_P1;PMS_P2;Temp;Humidity;BMP_temperature;BMP_pressure;BME280_temperature;BME280_humidity;BME280_pressure;Samples;Min_cycle;Max_cycle;Signal;HPM_P1;HPM_P2
2021/05/28 00:00:58;;;;;;;2.25;1.00;;;17.00;61.20;;;;;;5054657;28;20214;-62
2021/05/28 00:03:23;;;;;;;1.42;1.27;;;17.00;61.20;;;;;;5054042;28;20175;-62
2021/05/28 00:05:51;;;;;;;2.03;0.90;;;17.00;61.20;;;;;;5054423;28;20583;-62
2021/05/28 00:08:17;;;;;;;1.73;0.95;;;17.00;61.20;;;;;;5054573;28;20258;-63
2021/05/28 00:10:42;;;;;;;0.80;0.80;;;17.00;61.20;;;;;;5053493;28;20249;-63
2021/05/28 00:13:08;;;;;;;2.10;0.98;;;17.00;61.20;;;;;;5054557;28;20170;-62
2021/05/28 00:15:34;;;;;;;1.08;0.98;;;17.00;61.20;;;;;;5054123;28;20183;-62
2021/05/28 00:18:00;;;;;;;1.40;0.90;;;17.00;61.20;;;;;;5053709;28;20167;-62
2021/05/28 00:20:25;;;;;;;1.02;1.00;;;16.90;61.10;;;;;;5054439;28;20219;-62
2021/05/28 00:22:51;;;;;;;1.33;1.15;;;17.00;61.20;;;;;;5053864;28;20175;-62
2021/05/28 00:25:16;;;;;;;1.17;0.88;;;16.90;61.10;;;;;;5053570;28;20657;-62
2021/05/28 00:27:42;;;;;;;1.42;1.20;;;17.00;61.10;;;;;;5054060;28;20179;-62
2021/05/28 00:30:08;;;;;;;1.10;1.10;;;16.90;61.10;;;;;;5054181;28;20183;-62
2021/05/28 00:32:34;;;;;;;1.45;0.80;;;17.00;61.10;;;;;;5052971;28;20186;-62
2021/05/28 00:34:59;;;;;;;1.35;1.00;;;16.90;61.10;;;;;;5054120;28;20171;-62
2021/05/28 00:37:25;;;;;;;0.70;0.70;;;16.90;61.00;;;;;;5054009;28;20527;-63
2021/05/28 00:39:56;;;;;;;1.52;1.10;;;16.90;61.00;;;;;;5052740;28;20219;-63
2021/05/28 00:42:21;;;;;;;1.55;1.15;;;16.90;61.00;;;;;;5054058;28;20171;-62
2021/05/28 00:44:47;;;;;;;1.35;1.25;;;16.90;61.00;;;;;;5053404;28;20226;-61
2021/05/28 00:47:12;;;;;;;1.75;1.00;;;16.90;61.00;;;;;;5053201;28;20183;-62
2021/05/28 00:49:38;;;;;;;1.15;0.95;;;16.90;61.00;;;;;;5053616;28;20171;-62
2021/05/28 00:52:04;;;;;;;1.52;1.10;;;16.90;61.00;;;;;;5053558;28;20182;-62
2021/05/28 00:54:30;;;;;;;1.23;1.08;;;16.90;61.00;;;;;;5053074;28;20633;-62
2021/05/28 00:56:55;;;;;;;1.15;1.05;;;16.90;61.00;;;;;;5053702;28;20183;-62
2021/05/28 00:59:21;;;;;;;1.40;1.02;;;16.90;61.00;;;;;;5035164;28;20175;-62
2021/05/28 01:01:47;;;;;;;2.78;1.00;;;16.90;61.00;;;;;;5035621;28;20175;-62
2021/05/28 01:04:12;;;;;;;1.42;1.08;;;16.80;60.90;;;;;;5053564;28;20518;-62
2021/05/28 01:06:38;;;;;;;1.05;1.00;;;16.80;60.80;;;;;;5052454;28;20178;-63
2021/05/28 01:09:04;;;;;;;1.08;0.98;;;16.90;61.00;;;;;;5053432;28;20179;-62
2021/05/28 01:11:30;;;;;;;1.05;0.90;;;16.90;60.90;;;;;;5053577;28;20182;-62
2021/05/28 01:13:59;;;;;;;1.65;1.15;;;16.90;60.90;;;;;;5052168;28;20179;-62
2021/05/28 01:16:24;;;;;;;2.20;1.40;;;16.90;60.90;;;;;;5036271;28;20179;-62
2021/05/28 01:18:50;;;;;;;1.35;1.10;;;16.90;60.90;;;;;;5052916;28;20198;-62
2021/05/28 01:21:15;;;;;;;1.10;1.00;;;16.90;61.00;;;;;;5052406;28;20302;-62
2021/05/28 01:23:41;;;;;;;3.33;1.02;;;16.80;60.80;;;;;;5052682;28;20287;-62
2021/05/28 01:26:10;;;;;;;0.90;0.90;;;16.90;60.90;;;;;;5053035;28;20171;-62
2021/05/28 01:28:35;;;;;;;1.60;1.13;;;16.80;60.90;;;;;;5052263;28;20254;-62
2021/05/28 01:31:01;;;;;;;1.30;0.90;;;16.80;60.80;;;;;;5035247;28;20207;-62
2021/05/28 01:33:26;;;;;;;2.70;1.38;;;16.80;60.80;;;;;;5053091;28;20254;-62
2021/05/28 01:35:53;;;;;;;1.00;1.00;;;16.80;60.80;;;;;;5051889;28;20534;-62
2021/05/28 01:38:19;;;;;;;1.50;1.20;;;16.80;60.80;;;;;;5052766;28;20186;-63
2021/05/28 01:40:44;;;;;;;1.02;0.90;;;16.80;60.80;;;;;;5052188;28;20561;-63
2021/05/28 01:43:10;;;;;;;1.35;1.23;;;16.80;60.80;;;;;;5051730;28;20186;-63
2021/05/28 01:45:35;;;;;;;2.08;1.00;;;16.80;60.80;;;;;;5051987;28;20258;-62
2021/05/28 01:48:02;;;;;;;1.95;1.00;;;16.80;60.80;;;;;;5052610;28;20186;-63
2021/05/28 01:50:28;;;;;;;1.25;1.00;;;16.80;60.80;;;;;;5052009;28;20179;-62
2021/05/28 01:52:53;;;;;;;1.20;1.00;;;16.80;60.80;;;;;;5052281;28;20175;-62
2021/05/28 01:55:19;;;;;;;1.10;1.00;;;16.80;60.70;;;;;;5052840;28;20178;-62
2021/05/28 01:57:44;;;;;;;1.15;0.98;;;16.70;60.70;;;;;;5051585;28;20171;-61
2021/05/28 02:00:12;;;;;;;1.65;1.15;;;16.80;60.70;;;;;;5034795;28;20581;-61
2021/05/28 02:02:37;;;;;;;1.33;1.23;;;16.80;60.70;;;;;;5033808;28;20175;-62
2021/05/28 02:05:05;;;;;;;1.00;1.00;;;16.80;60.70;;;;;;5052341;28;20186;-62
2021/05/28 02:07:30;;;;;;;1.23;1.13;;;16.80;60.80;;;;;;5052252;28;20187;-62
2021/05/28 02:09:56;;;;;;;1.00;1.00;;;16.70;60.70;;;;;;5051911;28;20182;-62
2021/05/28 02:12:22;;;;;;;1.17;1.05;;;16.70;60.70;;;;;;5052683;28;20233;-62
2021/05/28 02:14:47;;;;;;;1.25;1.00;;;16.70;60.60;;;;;;5052102;28;20175;-62
2021/05/28 02:17:13;;;;;;;1.20;1.10;;;16.70;60.60;;;;;;5051553;28;20577;-62
2021/05/28 02:19:38;;;;;;;0.90;0.90;;;16.70;60.60;;;;;;5052063;28;20666;-63
2021/05/28 02:22:06;;;;;;;1.20;1.10;;;16.70;60.60;;;;;;5052185;28;20237;-62
2021/05/28 02:24:31;;;;;;;1.13;1.13;;;16.70;60.70;;;;;;5051508;28;20203;-62
2021/05/28 02:26:57;;;;;;;1.95;1.35;;;16.70;60.60;;;;;;5052337;28;20657;-62
2021/05/28 02:29:23;;;;;;;1.08;1.00;;;16.70;60.70;;;;;;5052348;28;20211;-62
2021/05/28 02:31:49;;;;;;;1.45;1.30;;;16.70;60.60;;;;;;5051277;28;20174;-61
2021/05/28 02:34:14;;;;;;;1.20;1.10;;;16.70;60.60;;;;;;5052073;28;20175;-62
2021/05/28 02:36:39;;;;;;;1.45;1.10;;;16.70;60.60;;;;;;5051757;28;20537;-62
2021/05/28 02:39:06;;;;;;;1.40;1.30;;;16.70;60.60;;;;;;5051657;28;20171;-63
2021/05/28 02:41:31;;;;;;;0.98;0.90;;;16.70;61.50;;;;;;5034193;28;20214;-63
2021/05/28 02:43:57;;;;;;;1.05;1.00;;;16.70;60.60;;;;;;5052066;28;20272;-62
2021/05/28 02:46:22;;;;;;;1.75;1.20;;;16.60;60.50;;;;;;5051426;28;20210;-62
2021/05/28 02:48:48;;;;;;;1.45;1.20;;;16.70;60.60;;;;;;5051670;28;20175;-62
2021/05/28 02:51:13;;;;;;;1.30;1.20;;;16.70;60.60;;;;;;5051968;28;20209;-62
2021/05/28 02:53:39;;;;;;;1.20;1.10;;;16.70;60.60;;;;;;5051326;28;20250;-62
2021/05/28 02:56:05;;;;;;;1.17;1.08;;;16.70;60.60;;;;;;5052143;28;20179;-62
2021/05/28 02:58:33;;;;;;;1.38;1.27;;;16.60;60.50;;;;;;5055454;28;20551;-62
2021/05/28 03:00:59;;;;;;;1.27;1.20;;;16.70;60.60;;;;;;5055006;28;20237;-62
2021/05/28 03:03:25;;;;;;;1.55;1.27;;;16.60;60.50;;;;;;5055803;28;20634;-62
2021/05/28 03:05:50;;;;;;;1.10;1.10;;;16.70;60.60;;;;;;5054671;28;20187;-63
2021/05/28 03:08:19;;;;;;;1.17;1.08;;;16.70;60.60;;;;;;5055917;28;20167;-63
2021/05/28 03:10:44;;;;;;;1.05;1.05;;;16.60;61.30;;;;;;5055476;28;20595;-62
2021/05/28 03:13:10;;;;;;;1.30;1.20;;;16.60;60.50;;;;;;5054953;28;20662;-62
2021/05/28 03:15:36;;;;;;;1.20;1.10;;;16.60;60.50;;;;;;5055463;28;20175;-63
2021/05/28 03:18:02;;;;;;;1.30;1.20;;;16.60;60.50;;;;;;5055591;28;20308;-62
2021/05/28 03:20:35;;;;;;;1.20;1.10;;;16.60;60.50;;;;;;5054669;28;20618;-62
2021/05/28 03:23:01;;;;;;;1.00;1.00;;;16.60;60.40;;;;;;5055330;28;20845;-62
2021/05/28 03:25:27;;;;;;;1.35;1.25;;;16.60;60.40;;;;;;5055283;28;20644;-62
2021/05/28 03:27:53;;;;;;;1.30;1.20;;;16.60;60.40;;;;;;5054438;28;20182;-62
2021/05/28 03:30:19;;;;;;;1.40;1.30;;;16.60;60.40;;;;;;5055374;28;20175;-62
2021/05/28 03:32:45;;;;;;;1.20;1.10;;;16.60;60.40;;;;;;5037247;28;20167;-62
2021/05/28 03:35:10;;;;;;;1.33;1.20;;;16.60;60.50;;;;;;5054489;28;20237;-62
2021/05/28 03:37:38;;;;;;;1.50;1.40;;;16.60;60.40;;;;;;5054992;28;20614;-62
2021/05/28 03:40:04;;;;;;;1.13;1.02;;;16.60;60.50;;;;;;5055051;28;20595;-63
2021/05/28 03:42:29;;;;;;;1.35;1.08;;;16.60;60.50;;;;;;5054452;28;20261;-63
2021/05/28 03:44:55;;;;;;;1.35;1.30;;;16.60;60.40;;;;;;5054441;28;20639;-63
2021/05/28 03:47:21;;;;;;;1.30;1.20;;;16.60;60.40;;;;;;5054826;28;20179;-63
2021/05/28 03:49:46;;;;;;;1.80;1.30;;;16.60;60.40;;;;;;5053806;28;20182;-62
2021/05/28 03:52:12;;;;;;;1.88;1.42;;;16.60;60.40;;;;;;5037313;28;20206;-63
2021/05/28 03:54:40;;;;;;;1.27;1.20;;;16.60;60.40;;;;;;5054860;28;20259;-62
2021/05/28 03:57:06;;;;;;;1.30;1.20;;;16.60;60.40;;;;;;5054140;28;20183;-62
2021/05/28 03:59:32;;;;;;;1.50;1.40;;;16.60;61.30;;;;;;5054460;28;20174;-62
2021/05/28 04:01:57;;;;;;;1.85;0.95;;;16.60;60.40;;;;;;5054530;28;20634;-62
2021/05/28 04:04:23;;;;;;;1.30;1.20;;;16.60;60.40;;;;;;5053988;28;20175;-62
2021/05/28 04:06:48;;;;;;;1.40;1.30;;;16.60;60.40;;;;;;5054369;28;20175;-63
2021/05/28 04:09:14;;;;;;;1.27;1.20;;;16.60;60.40;;;;;;5053769;28;20225;-63
2021/05/28 04:11:39;;;;;;;2.67;1.48;;;16.60;60.40;;;;;;5054292;28;20174;-63
2021/05/28 04:14:05;;;;;;;1.40;1.30;;;16.60;60.40;;;;;;5054464;28;20220;-63
2021/05/28 04:16:31;;;;;;;1.70;1.60;;;16.50;60.30;;;;;;5053453;28;20175;-62
2021/05/28 04:18:56;;;;;;;1.38;1.27;;;16.50;60.30;;;;;;5054148;28;20261;-63
2021/05/28 04:21:22;;;;;;;1.48;1.38;;;16.60;60.30;;;;;;5054469;28;20697;-62
2021/05/28 04:23:47;;;;;;;1.38;1.27;;;16.60;60.30;;;;;;5053487;28;20183;-62
2021/05/28 04:26:13;;;;;;;1.10;1.10;;;16.60;60.30;;;;;;5054283;28;20186;-62
2021/05/28 04:28:38;;;;;;;1.75;1.52;;;16.50;60.20;;;;;;5053937;28;20178;-62
2021/05/28 04:31:04;;;;;;;1.33;1.23;;;16.60;60.30;;;;;;5053396;28;20654;-62
2021/05/28 04:33:29;;;;;;;1.35;1.35;;;16.50;60.20;;;;;;5054039;28;20175;-62
2021/05/28 04:35:55;;;;;;;1.60;1.30;;;16.50;60.20;;;;;;5053883;28;20175;-62
2021/05/28 04:38:20;;;;;;;1.50;1.40;;;16.50;60.30;;;;;;5053396;28;20218;-63
2021/05/28 04:40:47;;;;;;;1.65;1.30;;;16.50;60.20;;;;;;5053421;28;20360;-63
2021/05/28 04:43:13;;;;;;;1.48;1.38;;;16.50;60.20;;;;;;5053924;28;20171;-63
2021/05/28 04:45:38;;;;;;;2.15;1.40;;;16.60;60.20;;;;;;5052933;28;20178;-63
2021/05/28 04:48:04;;;;;;;1.50;1.40;;;16.50;60.20;;;;;;5053630;28;20538;-63
2021/05/28 04:50:33;;;;;;;1.30;1.10;;;16.50;60.20;;;;;;5054094;28;20175;-63
2021/05/28 04:52:59;;;;;;;1.50;1.40;;;16.50;60.20;;;;;;5053117;28;20180;-62
2021/05/28 04:55:25;;;;;;;1.58;1.48;;;16.50;60.20;;;;;;5035790;28;20646;-62
2021/05/28 04:57:51;;;;;;;1.35;1.25;;;16.50;60.20;;;;;;5053208;28;20265;-62
2021/05/28 05:00:17;;;;;;;2.30;1.33;;;16.50;60.20;;;;;;5052745;28;20352;-62
2021/05/28 05:02:43;;;;;;;1.70;1.60;;;16.60;60.20;;;;;;5053572;28;20179;-63
2021/05/28 05:05:09;;;;;;;1.38;1.27;;;16.60;60.10;;;;;;5053496;28;20220;-62
2021/05/28 05:07:34;;;;;;;1.30;1.20;;;16.60;60.20;;;;;;5052664;28;20312;-63
2021/05/28 05:10:00;;;;;;;1.25;1.15;;;16.70;60.30;;;;;;5053481;28;20190;-62
2021/05/28 05:12:25;;;;;;;1.40;1.30;;;16.80;60.30;;;;;;5052712;28;20179;-62
2021/05/28 05:14:51;;;;;;;1.23;1.13;;;17.00;60.00;;;;;;5052960;28;20525;-62
2021/05/28 05:17:16;;;;;;;1.27;1.20;;;17.30;59.70;;;;;;5053205;28;20198;-62
2021/05/28 05:19:41;;;;;;;1.20;1.10;;;17.50;59.40;;;;;;5051601;28;20209;-63
2021/05/28 05:22:07;;;;;;;1.20;1.10;;;17.80;58.70;;;;;;5053278;28;20203;-63
2021/05/28 05:24:32;;;;;;;1.05;1.00;;;18.20;57.90;;;;;;5052777;28;20216;-62
2021/05/28 05:26:58;;;;;;;1.10;1.00;;;18.50;57.30;;;;;;5052295;28;20708;-62
2021/05/28 05:29:24;;;;;;;0.90;0.90;;;18.60;57.00;;;;;;5053113;28;20181;-62
2021/05/28 05:31:49;;;;;;;1.30;1.20;;;18.80;56.70;;;;;;5052549;28;20179;-62
2021/05/28 05:34:15;;;;;;;1.20;1.10;;;19.00;56.50;;;;;;5052293;28;20175;-62
2021/05/28 05:36:40;;;;;;;0.80;0.80;;;19.10;56.30;;;;;;5052767;28;20186;-62
2021/05/28 05:39:06;;;;;;;1.17;1.08;;;19.10;56.20;;;;;;5052993;28;20167;-63
2021/05/28 05:41:32;;;;;;;1.20;1.10;;;19.20;56.10;;;;;;5052023;28;20203;-63
2021/05/28 05:43:57;;;;;;;1.17;1.08;;;19.20;56.10;;;;;;5052517;28;20223;-63
2021/05/28 05:46:23;;;;;;;1.08;0.98;;;19.30;56.10;;;;;;5052730;28;20175;-62
2021/05/28 05:48:48;;;;;;;0.90;0.90;;;19.30;56.10;;;;;;5051865;28;20249;-62
2021/05/28 05:51:14;;;;;;;0.98;0.98;;;19.30;56.20;;;;;;5052865;28;20175;-62
2021/05/28 05:53:39;;;;;;;0.70;0.70;;;19.20;56.20;;;;;;5052594;28;20177;-62
2021/05/28 05:56:05;;;;;;;0.65;0.65;;;19.20;56.30;;;;;;5051976;28;20171;-62
2021/05/28 05:58:30;;;;;;;1.08;1.00;;;19.10;56.50;;;;;;5052527;28;20167;-62
2021/05/28 06:00:56;;;;;;;0.88;0.88;;;19.00;56.70;;;;;;5052373;28;20688;-62
2021/05/28 06:03:21;;;;;;;0.80;0.80;;;18.90;56.90;;;;;;5052060;28;20635;-62
2021/05/28 06:05:47;;;;;;;0.70;0.70;;;18.80;57.10;;;;;;5052254;28;20236;-62
2021/05/28 06:08:12;;;;;;;0.90;0.90;;;18.70;57.20;;;;;;5052635;28;20167;-63
2021/05/28 06:10:38;;;;;;;0.90;0.90;;;18.60;57.30;;;;;;5051469;28;20236;-63
2021/05/28 06:13:04;;;;;;;1.73;0.77;;;18.60;57.50;;;;;;5052447;28;20661;-62
2021/05/28 06:15:30;;;;;;;0.80;0.80;;;18.50;57.60;;;;;;5052267;28;20270;-62
2021/05/28 06:17:56;;;;;;;1.08;1.08;;;18.40;57.80;;;;;;5051575;28;20258;-62
2021/05/28 06:20:21;;;;;;;1.15;1.10;;;18.40;57.90;;;;;;5052452;28;20221;-62
2021/05/28 06:22:48;;;;;;;0.82;0.82;;;18.40;58.00;;;;;;5051171;28;20174;-62
2021/05/28 06:25:14;;;;;;;0.95;0.95;;;18.40;58.00;;;;;;5052299;28;20186;-62
2021/05/28 06:27:39;;;;;;;0.80;0.80;;;18.40;58.00;;;;;;5052039;28;20250;-62
2021/05/28 06:30:05;;;;;;;1.08;1.08;;;18.40;58.00;;;;;;5051338;28;20172;-62
2021/05/28 06:32:31;;;;;;;1.13;1.00;;;18.40;57.90;;;;;;5056041;28;20935;-62
2021/05/28 06:34:56;;;;;;;1.27;1.17;;;18.40;58.00;;;;;;5056409;28;20250;-62
2021/05/28 06:37:22;;;;;;;0.98;0.98;;;18.30;58.00;;;;;;5055612;28;20629;-63
2021/05/28 06:39:47;;;;;;;0.90;0.90;;;18.30;58.20;;;;;;5055829;28;20203;-63
2021/05/28 06:42:13;;;;;;;1.10;1.10;;;18.20;58.10;;;;;;5056258;28;20170;-63
2021/05/28 06:44:38;;;;;;;1.00;1.00;;;18.20;58.30;;;;;;5054950;28;20284;-63
2021/05/28 06:47:04;;;;;;;1.30;1.25;;;18.20;58.30;;;;;;5055995;28;20175;-63
2021/05/28 06:49:29;;;;;;;0.90;0.90;;;18.30;58.20;;;;;;5056307;28;20618;-63
2021/05/28 06:51:55;;;;;;;1.00;1.00;;;18.40;58.80;;;;;;5055063;28;20257;-63
2021/05/28 06:54:20;;;;;;;0.88;0.88;;;18.40;58.00;;;;;;5056143;28;20178;-62
2021/05/28 06:56:46;;;;;;;1.08;1.08;;;18.40;58.00;;;;;;5055480;28;20279;-62
2021/05/28 06:59:12;;;;;;;1.08;1.08;;;18.40;58.00;;;;;;5055112;28;20229;-62
2021/05/28 07:01:37;;;;;;;0.80;0.80;;;18.40;58.10;;;;;;5055716;28;20294;-62
2021/05/28 07:04:04;;;;;;;1.00;1.00;;;18.40;58.10;;;;;;5055876;28;20496;-62
2021/05/28 07:06:29;;;;;;;1.30;1.20;;;18.30;58.10;;;;;;5055138;28;20217;-63
2021/05/28 07:08:55;;;;;;;1.02;1.00;;;18.30;58.20;;;;;;5055215;28;20198;-63
2021/05/28 07:11:21;;;;;;;0.98;0.98;;;18.30;58.20;;;;;;5055694;28;20250;-63
2021/05/28 07:13:47;;;;;;;1.20;1.20;;;18.30;58.30;;;;;;5054606;28;20221;-62
2021/05/28 07:16:12;;;;;;;0.90;0.90;;;18.30;58.30;;;;;;5055543;28;20635;-62
2021/05/28 07:18:38;;;;;;;1.00;1.00;;;18.30;58.30;;;;;;5055419;28;20215;-63
2021/05/28 07:21:04;;;;;;;0.98;0.98;;;18.30;58.30;;;;;;5054694;28;20218;-62
2021/05/28 07:23:29;;;;;;;0.80;0.80;;;18.30;58.30;;;;;;5055505;28;20263;-62
2021/05/28 07:25:56;;;;;;;0.90;0.90;;;18.30;58.30;;;;;;5055130;28;20182;-62
2021/05/28 07:28:24;;;;;;;0.90;0.90;;;18.30;58.40;;;;;;5054845;28;20179;-62
2021/05/28 07:30:50;;;;;;;1.00;0.90;;;18.20;58.40;;;;;;5055083;28;20178;-62
2021/05/28 07:33:16;;;;;;;0.93;0.93;;;18.20;58.50;;;;;;5054740;28;20263;-61
2021/05/28 07:35:42;;;;;;;1.00;1.00;;;18.20;58.60;;;;;;5055112;28;20262;-62
2021/05/28 07:38:07;;;;;;;1.42;1.33;;;18.20;58.60;;;;;;5055125;28;20211;-62
2021/05/28 07:40:33;;;;;;;1.13;1.13;;;18.20;58.60;;;;;;5054263;28;20298;-63
2021/05/28 07:42:58;;;;;;;0.82;0.82;;;18.20;58.60;;;;;;5053873;28;20179;-63
2021/05/28 07:45:24;;;;;;;1.00;1.00;;;18.20;58.60;;;;;;5055004;28;20543;-63
2021/05/28 07:47:49;;;;;;;1.00;1.00;;;18.20;58.60;;;;;;5053723;28;20178;-63
2021/05/28 07:50:15;;;;;;;0.90;0.90;;;18.20;58.60;;;;;;5055322;28;20178;-62
2021/05/28 07:52:40;;;;;;;0.85;0.85;;;18.20;58.70;;;;;;5054709;28;20339;-62
2021/05/28 07:55:06;;;;;;;0.85;0.85;;;18.20;58.60;;;;;;5054347;28;20626;-62
2021/05/28 07:57:32;;;;;;;1.00;1.00;;;18.20;58.70;;;;;;5054380;28;20653;-62
2021/05/28 07:59:57;;;;;;;0.95;0.93;;;18.20;58.70;;;;;;5054716;28;20207;-61
2021/05/28 08:02:23;;;;;;;1.77;0.90;;;18.20;58.80;;;;;;5054192;28;20563;-62
2021/05/28 08:04:48;;;;;;;0.95;0.95;;;18.20;58.80;;;;;;5054361;28;20171;-62
2021/05/28 08:07:14;;;;;;;0.93;0.93;;;18.20;58.90;;;;;;5054635;28;20183;-62
2021/05/28 08:09:39;;;;;;;1.02;1.00;;;18.20;58.90;;;;;;5053634;28;20198;-59
2021/05/28 08:12:05;;;;;;;2.42;1.40;;;18.20;58.90;;;;;;5054336;28;20171;-59
2021/05/28 08:14:31;;;;;;;4.10;1.80;;;18.20;59.00;;;;;;5054234;28;20645;-59
2021/05/28 08:16:56;;;;;;;3.03;1.42;;;18.30;59.30;;;;;;5053880;28;20199;-61
2021/05/28 08:19:22;;;;;;;1.50;1.40;;;18.30;59.30;;;;;;5054499;28;20587;-61
2021/05/28 08:21:47;;;;;;;1.95;1.40;;;18.30;59.30;;;;;;5053990;28;20302;-64
2021/05/28 08:24:13;;;;;;;2.70;1.70;;;18.30;59.40;;;;;;5035888;28;20171;-61
2021/05/28 08:26:38;;;;;;;3.00;1.90;;;18.30;59.50;;;;;;5053754;28;20561;-61
2021/05/28 08:29:05;;;;;;;2.78;1.58;;;18.30;59.60;;;;;;5054474;28;20228;-61
2021/05/28 08:31:31;;;;;;;3.13;2.05;;;18.30;59.70;;;;;;5053603;28;20175;-61
2021/05/28 08:33:56;;;;;;;2.47;1.70;;;18.30;59.60;;;;;;5054310;28;20183;-61
2021/05/28 08:36:22;;;;;;;1.45;1.30;;;18.30;59.70;;;;;;5053521;28;20258;-62
2021/05/28 08:38:47;;;;;;;1.88;1.38;;;18.30;59.70;;;;;;5053785;28;20175;-62
2021/05/28 08:41:14;;;;;;;2.50;1.42;;;18.30;59.70;;;;;;5053928;28;20289;-61
2021/05/28 08:43:42;;;;;;;2.00;1.40;;;18.30;59.80;;;;;;5035297;28;20219;-61
2021/05/28 08:46:07;;;;;;;1.80;1.45;;;18.40;59.80;;;;;;5053669;28;20176;-62
2021/05/28 08:48:33;;;;;;;2.72;1.67;;;18.40;59.70;;;;;;5053445;28;20182;-61
2021/05/28 08:50:58;;;;;;;4.50;1.63;;;18.40;59.70;;;;;;5053158;28;20232;-62
2021/05/28 08:53:25;;;;;;;1.88;1.67;;;18.40;59.80;;;;;;5053838;28;20217;-61
2021/05/28 08:55:50;;;;;;;1.98;1.45;;;18.50;59.80;;;;;;5053329;28;20609;-61
2021/05/28 08:58:22;;;;;;;2.65;1.60;;;18.40;59.70;;;;;;5035598;28;20532;-61
2021/05/28 09:00:48;;;;;;;1.70;1.58;;;18.50;59.70;;;;;;5035681;28;20297;-61
2021/05/28 09:03:20;;;;;;;2.25;1.60;;;18.50;59.70;;;;;;5053683;28;20197;-61
2021/05/28 09:05:50;;;;;;;1.60;1.30;;;18.50;59.70;;;;;;5052545;28;20186;-61
2021/05/28 09:08:24;;;;;;;2.58;1.60;;;18.50;59.70;;;;;;5053555;28;20174;-61
2021/05/28 09:10:49;;;;;;;2.03;1.60;;;18.60;59.70;;;;;;5053367;28;20178;-61
2021/05/28 09:13:20;;;;;;;1.50;1.40;;;18.60;59.70;;;;;;5052933;28;20171;-61
2021/05/28 09:15:47;;;;;;;2.13;1.73;;;18.60;59.70;;;;;;5052995;28;20316;-61
2021/05/28 09:18:13;;;;;;;1.60;1.50;;;18.60;59.70;;;;;;5053340;28;20180;-61
2021/05/28 09:20:39;;;;;;;2.58;1.58;;;18.60;59.70;;;;;;5052195;28;20207;-61
2021/05/28 09:23:17;;;;;;;1.75;1.30;;;18.60;59.80;;;;;;5053393;28;20175;-60
2021/05/28 09:26:01;;;;;;;2.22;1.80;;;18.60;59.90;;;;;;5052488;28;20175;-61
2021/05/28 09:28:27;;;;;;;3.15;1.70;;;18.50;59.90;;;;;;5053349;28;20179;-60
2021/05/28 09:30:56;;;;;;;1.50;1.30;;;18.60;60.00;;;;;;5053013;28;20174;-61
2021/05/28 09:33:23;;;;;;;2.42;1.55;;;18.60;60.00;;;;;;5052404;28;20175;-61
2021/05/28 09:35:50;;;;;;;1.88;1.77;;;18.60;60.00;;;;;;5052921;28;20183;-62
2021/05/28 09:38:24;;;;;;;2.88;1.60;;;18.60;60.00;;;;;;5052922;28;20605;-61
2021/05/28 09:40:50;;;;;;;1.83;1.52;;;18.60;60.00;;;;;;5051820;28;20602;-61
2021/05/28 09:43:23;;;;;;;2.50;1.80;;;18.60;60.00;;;;;;5052605;28;20261;-62
2021/05/28 09:45:49;;;;;;;2.10;1.67;;;18.60;60.00;;;;;;5052353;28;20193;-61
2021/05/28 09:48:14;;;;;;;1.98;1.70;;;18.60;59.90;;;;;;5052257;28;20175;-61
2021/05/28 09:50:48;;;;;;;2.70;1.70;;;18.60;60.00;;;;;;5052653;28;20179;-62
2021/05/28 09:53:33;;;;;;;1.60;1.48;;;18.70;60.00;;;;;;5052901;28;20181;-61
2021/05/28 09:56:25;;;;;;;1.60;1.50;;;18.70;60.00;;;;;;5051915;28;20181;-61
2021/05/28 09:59:05;;;;;;;1.83;1.73;;;18.70;60.00;;;;;;5052228;28;20286;-61
2021/05/28 10:01:31;;;;;;;2.13;1.70;;;18.70;60.00;;;;;;5051702;28;20339;-61
2021/05/28 10:04:07;;;;;;;2.20;1.58;;;18.70;59.90;;;;;;5052599;28;20660;-61
2021/05/28 10:06:34;;;;;;;5.15;1.80;;;18.80;60.00;;;;;;5051810;28;20257;-62
2021/05/28 10:09:02;;;;;;;3.15;1.50;;;18.80;59.90;;;;;;5051533;28;20175;-61
2021/05/28 10:11:28;;;;;;;2.17;1.48;;;18.80;59.80;;;;;;5052645;28;20253;-61
2021/05/28 10:13:54;;;;;;;2.22;1.70;;;18.80;59.80;;;;;;5034493;28;20174;-61
2021/05/28 10:16:24;;;;;;;2.53;1.10;;;18.80;59.80;;;;;;5051987;28;20178;-62
2021/05/28 10:18:50;;;;;;;1.50;1.40;;;18.90;59.80;;;;;;5051993;28;20175;-62
2021/05/28 10:21:15;;;;;;;3.75;1.70;;;18.90;59.70;;;;;;5052207;28;20620;-61
2021/05/28 10:23:41;;;;;;;3.42;1.60;;;18.90;59.60;;;;;;5051507;28;20202;-61
2021/05/28 10:26:07;;;;;;;1.95;1.10;;;18.90;59.70;;;;;;5052340;28;20745;-61
2021/05/28 10:28:33;;;;;;;1.40;1.30;;;18.90;59.70;;;;;;5034484;28;20174;-61
2021/05/28 10:30:59;;;;;;;1.48;1.20;;;18.90;59.70;;;;;;5051565;28;20183;-61
2021/05/28 10:33:25;;;;;;;1.83;1.67;;;18.90;59.70;;;;;;5052289;28;20179;-61
2021/05/28 10:35:52;;;;;;;1.75;1.33;;;18.90;59.60;;;;;;5050830;28;20191;-62
2021/05/28 10:38:30;;;;;;;1.70;1.50;;;18.90;59.70;;;;;;5052306;28;20179;-61
2021/05/28 10:41:04;;;;;;;2.22;1.42;;;18.80;59.60;;;;;;5052175;28;20297;-62
2021/05/28 10:43:30;;;;;;;2.22;1.70;;;18.90;59.60;;;;;;5051213;28;20665;-63
2021/05/28 10:46:02;;;;;;;2.85;1.48;;;19.00;59.60;;;;;;5052278;28;20186;-63
2021/05/28 10:48:37;;;;;;;2.95;1.50;;;19.00;59.50;;;;;;5052093;28;20240;-63
2021/05/28 10:51:06;;;;;;;3.58;1.45;;;19.00;59.40;;;;;;5051259;28;20629;-63
2021/05/28 10:53:31;;;;;;;2.75;1.60;;;19.10;60.20;;;;;;5051924;28;20266;-62
2021/05/28 10:56:11;;;;;;;5.60;1.40;;;19.10;59.40;;;;;;5051969;28;20266;-63
2021/05/28 10:58:55;;;;;;;2.88;1.67;;;19.10;59.30;;;;;;5051029;28;20594;-62
2021/05/28 11:01:46;;;;;;;1.50;1.20;;;19.10;59.30;;;;;;5052187;28;20281;-62
2021/05/28 11:04:21;;;;;;;2.22;1.50;;;19.20;59.30;;;;;;5051511;28;20179;-62
2021/05/28 11:06:55;;;;;;;3.92;1.80;;;19.20;59.30;;;;;;5051732;28;20185;-63
2021/05/28 11:09:43;;;;;;;3.05;1.20;;;19.20;59.30;;;;;;5052158;28;20202;-62
2021/05/28 11:12:37;;;;;;;1.77;1.38;;;19.20;59.30;;;;;;5051262;28;20186;-62
2021/05/28 11:15:06;;;;;;;1.40;1.30;;;19.10;59.30;;;;;;5051749;28;20182;-62
2021/05/28 11:17:32;;;;;;;2.38;1.20;;;19.10;59.40;;;;;;5052082;28;20175;-62
2021/05/28 11:20:03;;;;;;;2.83;1.52;;;19.10;59.40;;;;;;5054932;28;20218;-62
2021/05/28 11:22:36;;;;;;;1.55;1.27;;;19.10;59.40;;;;;;5038075;28;20178;-62
2021/05/28 11:25:06;;;;;;;2.78;1.35;;;19.10;59.50;;;;;;5055369;28;20630;-62
2021/05/28 11:27:32;;;;;;;1.13;1.10;;;19.10;59.40;;;;;;5055218;28;20175;-62
2021/05/28 11:30:04;;;;;;;1.88;1.10;;;19.20;59.30;;;;;;5055349;28;20171;-62
2021/05/28 11:32:35;;;;;;;1.50;1.40;;;19.20;59.30;;;;;;5054789;28;20313;-63
2021/05/28 11:35:09;;;;;;;1.10;1.10;;;19.20;59.20;;;;;;5055297;28;20167;-62
2021/05/28 11:37:41;;;;;;;2.50;1.33;;;19.20;59.20;;;;;;5055065;28;20268;-62
2021/05/28 11:40:17;;;;;;;1.52;1.20;;;19.20;59.10;;;;;;5054206;28;20567;-62
2021/05/28 11:42:42;;;;;;;2.05;1.20;;;19.20;59.10;;;;;;5054982;28;20185;-62
2021/05/28 11:45:09;;;;;;;2.20;1.30;;;19.30;59.10;;;;;;5054886;28;20231;-62
2021/05/28 11:47:37;;;;;;;3.60;1.38;;;19.20;59.00;;;;;;5054074;28;20189;-62
2021/05/28 11:50:06;;;;;;;3.15;1.20;;;19.30;59.10;;;;;;5054864;28;20171;-62
2021/05/28 11:52:32;;;;;;;1.55;1.13;;;19.20;59.00;;;;;;5054593;28;20179;-62
2021/05/28 11:55:12;;;;;;;1.20;1.10;;;19.20;59.00;;;;;;5036251;28;20163;-62
2021/05/28 11:57:38;;;;;;;1.35;1.25;;;19.20;59.70;;;;;;5054800;28;20175;-62
2021/05/28 12:00:08;;;;;;;1.30;1.20;;;19.20;59.00;;;;;;5054772;28;20276;-62
2021/05/28 12:02:34;;;;;;;2.33;1.20;;;19.30;59.10;;;;;;5053807;28;20186;-63
2021/05/28 12:04:59;;;;;;;1.73;1.35;;;19.30;58.90;;;;;;5054663;28;20572;-62
2021/05/28 12:07:29;;;;;;;1.33;0.90;;;19.30;58.80;;;;;;5053867;28;20173;-62
2021/05/28 12:10:02;;;;;;;1.40;1.30;;;19.30;58.70;;;;;;5054416;28;20217;-63
2021/05/28 12:12:27;;;;;;;1.23;1.13;;;19.40;58.70;;;;;;5054661;28;20179;-62
2021/05/28 12:15:07;;;;;;;1.63;1.30;;;19.40;58.70;;;;;;5035562;28;20621;-63
2021/05/28 12:17:32;;;;;;;1.33;1.15;;;19.40;58.70;;;;;;5036311;28;20545;-62
2021/05/28 12:20:18;;;;;;;3.15;1.20;;;19.40;58.60;;;;;;5054160;28;20203;-62
2021/05/28 12:23:01;;;;;;;2.47;1.30;;;19.40;58.50;;;;;;5053670;28;20237;-62
2021/05/28 12:25:32;;;;;;;1.02;1.00;;;19.40;58.40;;;;;;5054367;28;20217;-61
2021/05/28 12:28:10;;;;;;;2.40;1.27;;;19.50;58.40;;;;;;5054250;28;20634;-62
2021/05/28 12:30:36;;;;;;;1.98;1.40;;;19.50;58.40;;;;;;5035370;28;20625;-62
2021/05/28 12:33:02;;;;;;;1.67;1.25;;;19.50;58.30;;;;;;5054292;28;20179;-62
2021/05/28 12:35:27;;;;;;;1.42;1.20;;;19.50;58.30;;;;;;5053606;28;20657;-63
2021/05/28 12:38:10;;;;;;;1.20;1.10;;;19.60;59.00;;;;;;5035881;28;20175;-63
2021/05/28 12:40:36;;;;;;;2.13;1.25;;;19.60;58.30;;;;;;5053758;28;20257;-62
2021/05/28 12:43:02;;;;;;;1.20;1.10;;;19.60;58.20;;;;;;5052834;28;20183;-63
2021/05/28 12:45:41;;;;;;;1.48;1.15;;;19.60;58.20;;;;;;5054512;28;20546;-62
2021/05/28 12:48:07;;;;;;;1.42;1.30;;;19.60;58.80;;;;;;5053935;28;20189;-62